Time;durP1;ratioP1;P1;durP2;ratioP2;P2;SDS_P1;SDS_P2;PMS_P1;PMS_P2;Temp;Humidity;BMP_temperature;BMP_pressure;BME280_temperature;BME280_humidity;BME280_pressure;Samples;Min_cycle;Max_cycle;Signal;HPM_P1;HPM_P2
2023/05/17 00:00:16;;;;;;;8.55;2.95;;;11.80;94.90;;;;;;4990865;28;20109;-68
2023/05/17 00:02:41;;;;;;;6.57;2.78;;;11.90;94.70;;;;;;4991627;28;20026;-66
2023/05/17 00:05:10;;;;;;;7.03;2.88;;;12.00;94.60;;;;;;4990718;28;20061;-66
2023/05/17 00:07:36;;;;;;;9.50;2.47;;;12.00;94.60;;;;;;4973448;28;20484;-65
2023/05/17 00:10:02;;;;;;;10.07;2.90;;;12.00;94.80;;;;;;4990950;28;20065;-65
2023/05/17 00:12:28;;;;;;;9.65;2.58;;;11.70;95.60;;;;;;4990859;28;20031;-67
2023/05/17 00:14:53;;;;;;;9.43;2.60;;;11.60;95.80;;;;;;4990712;28;20041;-67
2023/05/17 00:17:19;;;;;;;5.53;2.30;;;11.60;95.90;;;;;;4991103;28;20038;-66
2023/05/17 00:19:45;;;;;;;10.70;2.72;;;11.70;96.00;;;;;;4990376;28;20030;-65
2023/05/17 00:22:10;;;;;;;6.43;2.45;;;11.80;95.70;;;;;;4990832;28;20026;-65
2023/05/17 00:24:36;;;;;;;6.80;2.53;;;11.70;96.00;;;;;;4992819;28;20476;-66
2023/05/17 00:27:02;;;;;;;6.88;2.40;;;11.80;96.00;;;;;;4993512;28;20030;-68
2023/05/17 00:29:27;;;;;;;10.00;2.15;;;11.90;95.80;;;;;;4995355;28;20342;-67
2023/05/17 00:31:53;;;;;;;6.63;2.90;;;11.80;95.90;;;;;;4994514;28;20104;-68
2023/05/17 00:34:19;;;;;;;7.55;2.80;;;11.80;96.00;;;;;;4977180;28;20113;-66
2023/05/17 00:36:44;;;;;;;12.25;2.63;;;11.80;96.20;;;;;;4994337;28;20035;-65
2023/05/17 00:39:10;;;;;;;10.82;2.63;;;11.80;96.20;;;;;;4994323;28;20042;-66
2023/05/17 00:41:36;;;;;;;7.50;2.67;;;11.80;96.10;;;;;;4993803;28;20408;-66
2023/05/17 00:44:01;;;;;;;8.93;2.70;;;11.80;96.10;;;;;;4994635;28;20042;-67
2023/05/17 00:46:27;;;;;;;8.68;3.00;;;11.70;96.40;;;;;;4994582;28;20038;-65
2023/05/17 00:48:53;;;;;;;13.88;2.58;;;11.70;96.80;;;;;;4994310;28;20507;-66
2023/05/17 00:51:20;;;;;;;9.30;2.92;;;11.70;96.60;;;;;;4994165;28;20433;-66
2023/05/17 00:53:46;;;;;;;14.90;3.60;;;11.70;96.50;;;;;;4994527;28;20022;-67
2023/05/17 00:56:12;;;;;;;10.15;2.25;;;11.70;96.70;;;;;;4994565;28;20026;-65
2023/05/17 00:58:39;;;;;;;13.93;2.92;;;11.70;96.80;;;;;;4994291;28;20046;-67
2023/05/17 01:01:05;;;;;;;12.23;2.67;;;11.70;96.80;;;;;;4994068;28;20365;-67
2023/05/17 01:03:31;;;;;;;10.35;2.95;;;11.80;96.80;;;;;;4993988;28;20049;-66
2023/05/17 01:05:57;;;;;;;8.00;2.13;;;11.80;96.60;;;;;;4993654;28;20030;-65
2023/05/17 01:08:22;;;;;;;9.20;2.55;;;11.80;96.60;;;;;;4994407;28;20433;-66
2023/05/17 01:11:16;;;;;;;12.57;3.10;;;11.70;96.60;;;;;;4993766;28;20038;-65
2023/05/17 01:13:57;;;;;;;6.53;2.45;;;11.70;96.80;;;;;;4993693;28;20030;-67
2023/05/17 01:16:34;;;;;;;8.05;2.60;;;11.60;97.10;;;;;;4993768;28;20139;-64
2023/05/17 01:19:04;;;;;;;9.33;2.73;;;11.60;97.10;;;;;;4993830;28;20452;-66
2023/05/17 01:22:03;;;;;;;8.48;3.15;;;11.50;97.40;;;;;;4992722;28;20045;-66
2023/05/17 01:24:41;;;;;;;7.80;2.60;;;11.50;97.40;;;;;;4993886;28;20093;-66
2023/05/17 01:27:08;;;;;;;11.00;3.20;;;11.40;97.60;;;;;;4993712;28;20472;-66
2023/05/17 01:29:37;;;;;;;10.32;3.67;;;11.40;97.70;;;;;;4994216;28;20126;-65
2023/05/17 01:32:05;;;;;;;15.23;2.90;;;11.40;97.60;;;;;;4993642;28;20073;-65
2023/05/17 01:34:30;;;;;;;14.02;3.90;;;11.60;97.20;;;;;;4993887;28;20088;-65
2023/05/17 01:36:56;;;;;;;11.75;2.90;;;11.40;97.60;;;;;;5011054;28;20481;-66
2023/05/17 01:39:22;;;;;;;11.35;3.25;;;11.40;97.70;;;;;;5014000;28;20152;-64
2023/05/17 01:42:13;;;;;;;10.43;3.13;;;11.50;97.60;;;;;;5013888;28;20468;-65
2023/05/17 01:44:58;;;;;;;8.90;2.78;;;11.50;97.60;;;;;;5015522;28;20067;-66
2023/05/17 01:47:52;;;;;;;8.85;3.08;;;11.20;98.00;;;;;;5032697;28;20132;-67
2023/05/17 01:50:22;;;;;;;9.75;3.03;;;11.30;98.00;;;;;;5032803;28;20108;-65
2023/05/17 01:53:19;;;;;;;12.88;3.25;;;11.30;98.00;;;;;;5032837;28;20033;-66
2023/05/17 01:55:55;;;;;;;10.55;2.88;;;11.20;98.40;;;;;;5031510;28;20420;-65
2023/05/17 01:58:24;;;;;;;5.78;2.90;;;11.20;98.30;;;;;;5014749;28;20030;-65
2023/05/17 02:00:54;;;;;;;17.35;5.68;;;11.30;98.30;;;;;;5015401;28;20065;-64
2023/05/17 02:03:21;;;;;;;12.98;3.53;;;11.40;98.10;;;;;;5032677;28;20034;-66
2023/05/17 02:05:46;;;;;;;12.50;2.83;;;11.50;98.00;;;;;;5032710;28;20396;-66
2023/05/17 02:08:13;;;;;;;18.15;3.53;;;11.40;98.30;;;;;;5032358;28;20030;-65
2023/05/17 02:10:39;;;;;;;11.48;3.33;;;11.40;98.20;;;;;;5032266;28;20032;-66
2023/05/17 02:13:05;;;;;;;10.88;3.47;;;11.40;98.20;;;;;;5032286;28;20112;-67
2023/05/17 02:15:31;;;;;;;10.02;3.03;;;11.40;98.50;;;;;;5032364;28;20025;-65
2023/05/17 02:17:56;;;;;;;12.32;2.75;;;11.40;98.40;;;;;;5032061;28;20029;-66
2023/05/17 02:20:22;;;;;;;12.75;3.15;;;11.40;98.40;;;;;;5014697;28;20494;-65
2023/05/17 02:22:48;;;;;;;14.82;3.63;;;11.50;98.30;;;;;;5032148;28;20038;-65
2023/05/17 02:25:14;;;;;;;8.88;2.85;;;11.40;98.40;;;;;;5031764;28;20033;-64
2023/05/17 02:27:39;;;;;;;14.02;3.05;;;11.30;98.70;;;;;;5014320;28;20037;-66
2023/05/17 02:30:06;;;;;;;9.57;2.80;;;11.40;98.80;;;;;;5014173;28;20018;-64
2023/05/17 02:32:32;;;;;;;15.00;2.95;;;11.30;98.90;;;;;;5032469;28;20021;-64
2023/05/17 02:34:58;;;;;;;11.70;3.45;;;11.40;98.80;;;;;;5014262;28;20038;-65
2023/05/17 02:37:24;;;;;;;19.45;3.53;;;11.40;99.00;;;;;;5031582;28;20140;-66
2023/05/17 02:39:50;;;;;;;18.20;4.90;;;11.50;99.00;;;;;;5031760;28;20107;-65
2023/05/17 02:42:16;;;;;;;14.65;4.45;;;11.40;99.50;;;;;;5031598;28;20041;-68
2023/05/17 02:44:41;;;;;;;8.93;3.22;;;11.40;99.70;;;;;;5032254;28;20456;-67
2023/05/17 02:47:07;;;;;;;12.82;3.22;;;11.40;99.90;;;;;;5030964;28;20120;-65
2023/05/17 02:49:33;;;;;;;12.45;3.70;;;11.40;99.90;;;;;;5031433;28;20111;-66
2023/05/17 02:51:59;;;;;;;9.10;3.00;;;11.40;99.90;;;;;;5031388;28;20088;-67
2023/05/17 02:54:25;;;;;;;14.82;3.50;;;11.50;99.90;;;;;;5031404;28;20034;-66
2023/05/17 02:56:51;;;;;;;8.40;3.83;;;11.50;99.80;;;;;;5031513;28;20032;-66
2023/05/17 02:59:16;;;;;;;14.98;3.35;;;11.60;99.30;;;;;;5031678;28;20498;-66
2023/05/17 03:01:42;;;;;;;16.33;4.20;;;11.60;99.10;;;;;;5031097;28;20120;-66
2023/05/17 03:04:07;;;;;;;15.50;3.50;;;11.60;99.00;;;;;;5031199;28;20037;-68
2023/05/17 03:06:33;;;;;;;14.43;3.15;;;11.60;99.00;;;;;;5030902;28;20079;-67
2023/05/17 03:08:59;;;;;;;12.68;3.63;;;11.60;98.90;;;;;;5013412;28;20048;-66
2023/05/17 03:11:25;;;;;;;14.57;4.00;;;11.60;98.90;;;;;;5031298;28;20520;-67
2023/05/17 03:13:51;;;;;;;12.48;3.65;;;11.60;98.70;;;;;;5030841;28;20033;-67
2023/05/17 03:16:17;;;;;;;11.15;3.53;;;11.60;98.90;;;;;;5030875;28;20108;-67
2023/05/17 03:18:43;;;;;;;11.00;3.80;;;11.50;99.00;;;;;;5030693;28;20041;-67
2023/05/17 03:21:09;;;;;;;15.98;4.63;;;11.50;99.00;;;;;;5012996;28;20033;-67
2023/05/17 03:23:34;;;;;;;12.20;3.60;;;11.50;99.00;;;;;;5031080;28;20022;-67
2023/05/17 03:26:00;;;;;;;12.45;3.33;;;11.50;99.10;;;;;;5030796;28;20030;-67
2023/05/17 03:28:26;;;;;;;15.95;3.67;;;11.40;99.10;;;;;;5013189;28;20033;-66
2023/05/17 03:30:51;;;;;;;17.27;4.18;;;11.50;99.10;;;;;;5009702;28;20129;-67
2023/05/17 03:33:18;;;;;;;16.60;4.70;;;11.50;99.00;;;;;;5011020;28;20034;-66
2023/05/17 03:35:45;;;;;;;15.63;3.97;;;11.40;99.10;;;;;;5011326;28;20038;-65
2023/05/17 03:38:11;;;;;;;16.00;3.58;;;11.40;99.30;;;;;;5009654;28;20242;-66
2023/05/17 03:40:37;;;;;;;14.88;3.67;;;11.40;99.10;;;;;;5010857;28;20041;-66
2023/05/17 03:43:03;;;;;;;15.98;4.20;;;11.40;99.30;;;;;;5010886;28;20030;-67
2023/05/17 03:45:29;;;;;;;14.82;3.80;;;11.20;98.90;;;;;;5009406;28;20070;-65
2023/05/17 03:47:55;;;;;;;18.95;4.18;;;11.20;98.80;;;;;;5010897;28;20037;-66
2023/05/17 03:50:20;;;;;;;20.63;3.83;;;11.30;98.70;;;;;;5010246;28;20113;-66
2023/05/17 03:52:46;;;;;;;12.30;3.80;;;11.20;98.80;;;;;;5010675;28;20034;-66
2023/05/17 03:55:12;;;;;;;22.23;4.07;;;11.00;99.10;;;;;;5010465;28;20361;-68
2023/05/17 03:57:37;;;;;;;20.25;4.35;;;11.00;99.10;;;;;;5010725;28;20037;-67
2023/05/17 04:00:08;;;;;;;17.35;4.07;;;10.90;99.00;;;;;;5009991;28;20371;-66
2023/05/17 04:02:33;;;;;;;15.63;3.40;;;11.10;98.80;;;;;;5011235;28;20017;-67
2023/05/17 04:04:59;;;;;;;21.63;4.10;;;11.00;98.50;;;;;;5010766;28;20037;-65
2023/05/17 04:07:25;;;;;;;21.83;3.90;;;11.10;98.50;;;;;;5009298;28;20037;-66
2023/05/17 04:09:50;;;;;;;15.43;4.05;;;11.10;98.50;;;;;;5009518;28;20030;-68
2023/05/17 04:12:16;;;;;;;28.92;4.18;;;11.00;98.30;;;;;;5010697;28;20121;-65
2023/05/17 04:14:42;;;;;;;18.70;3.08;;;11.00;98.40;;;;;;5010808;28;20406;-66
2023/05/17 04:17:07;;;;;;;11.57;2.97;;;11.00;98.40;;;;;;5010368;28;20057;-66
2023/05/17 04:19:33;;;;;;;17.40;4.75;;;10.90;98.30;;;;;;5010355;28;20034;-67
2023/05/17 04:21:59;;;;;;;31.17;3.50;;;11.00;98.10;;;;;;5010599;28;20435;-67
2023/05/17 04:24:25;;;;;;;14.93;3.10;;;11.10;98.10;;;;;;5009038;28;20389;-66
2023/05/17 04:26:51;;;;;;;27.27;3.50;;;11.10;97.80;;;;;;5010360;28;20025;-67
2023/05/17 04:29:17;;;;;;;24.45;3.67;;;10.90;98.10;;;;;;5010727;28;20105;-66
2023/05/17 04:31:42;;;;;;;15.75;3.40;;;10.90;98.00;;;;;;5026237;28;20034;-66
2023/05/17 04:34:08;;;;;;;17.02;4.25;;;10.80;98.20;;;;;;5030080;28;20032;-68
2023/05/17 04:36:33;;;;;;;22.25;4.25;;;10.70;98.20;;;;;;5029917;28;20025;-67
2023/05/17 04:38:59;;;;;;;21.08;4.05;;;10.80;98.00;;;;;;5029881;28;20029;-67
2023/05/17 04:41:25;;;;;;;16.90;3.13;;;10.80;97.90;;;;;;5030171;28;20026;-67
2023/05/17 04:43:50;;;;;;;18.00;3.08;;;10.80;97.80;;;;;;5012332;28;20030;-67
2023/05/17 04:46:16;;;;;;;13.85;3.47;;;11.00;97.60;;;;;;5012274;28;20092;-67
2023/05/17 04:48:41;;;;;;;15.43;3.33;;;10.90;97.40;;;;;;5012383;28;20403;-67
2023/05/17 04:51:07;;;;;;;20.60;3.28;;;11.10;97.20;;;;;;5029854;28;20028;-66
2023/05/17 04:53:33;;;;;;;17.40;3.55;;;11.20;97.10;;;;;;5030172;28;20014;-66
2023/05/17 04:55:59;;;;;;;16.85;3.17;;;11.00;97.20;;;;;;5029681;28;20033;-67
2023/05/17 04:58:24;;;;;;;19.48;3.45;;;10.90;97.40;;;;;;5029605;28;20033;-67
2023/05/17 05:00:51;;;;;;;18.38;3.28;;;10.90;97.40;;;;;;5029848;28;20096;-67
2023/05/17 05:03:17;;;;;;;21.67;3.65;;;10.90;97.20;;;;;;5029908;28;20030;-67
2023/05/17 05:05:43;;;;;;;18.88;3.70;;;10.80;97.50;;;;;;5030232;28;20025;-67
2023/05/17 05:08:10;;;;;;;19.67;4.45;;;10.90;97.40;;;;;;5029922;28;20452;-66
2023/05/17 05:10:35;;;;;;;21.45;3.30;;;11.00;97.20;;;;;;5031845;28;20493;-64
2023/05/17 05:13:01;;;;;;;17.92;2.97;;;10.90;97.40;;;;;;5033281;28;20029;-66
2023/05/17 05:15:27;;;;;;;17.10;3.80;;;10.80;97.30;;;;;;5015635;28;20032;-66
2023/05/17 05:17:52;;;;;;;21.63;4.15;;;11.00;97.20;;;;;;5032442;28;20706;-66
2023/05/17 05:20:18;;;;;;;16.88;2.80;;;11.00;97.10;;;;;;5013788;28;20413;-68
2023/05/17 05:22:44;;;;;;;12.40;2.35;;;11.00;96.80;;;;;;5013292;28;20549;-65
2023/05/17 05:25:10;;;;;;;27.58;3.50;;;11.10;97.20;;;;;;5013052;28;20041;-67
2023/05/17 05:27:35;;;;;;;21.42;2.40;;;11.30;96.50;;;;;;4995964;28;20030;-67
2023/05/17 05:30:01;;;;;;;21.27;3.53;;;11.00;96.30;;;;;;5013261;28;20026;-67
2023/05/17 05:32:27;;;;;;;18.25;3.28;;;11.30;96.10;;;;;;5013891;28;20100;-65
2023/05/17 05:34:53;;;;;;;25.90;2.63;;;11.20;96.00;;;;;;5013392;28;20452;-65
2023/05/17 05:37:18;;;;;;;22.25;2.97;;;11.00;96.10;;;;;;5013297;28;20034;-66
2023/05/17 05:39:45;;;;;;;18.95;2.60;;;10.90;96.10;;;;;;4995913;28;20042;-66
2023/05/17 05:42:10;;;;;;;26.50;3.85;;;11.10;96.00;;;;;;5012975;28;20041;-67
2023/05/17 05:44:36;;;;;;;17.95;2.13;;;11.20;95.70;;;;;;5013569;28;20356;-67
2023/05/17 05:47:02;;;;;;;15.15;2.78;;;11.20;95.80;;;;;;5012733;28;20073;-67
2023/05/17 05:49:28;;;;;;;13.93;2.80;;;11.40;95.50;;;;;;5012865;28;20033;-66
2023/05/17 05:51:54;;;;;;;17.05;3.15;;;11.40;95.20;;;;;;5012839;28;20030;-67
2023/05/17 05:54:19;;;;;;;22.30;3.15;;;11.60;95.10;;;;;;5012539;28;20034;-68
2023/05/17 05:56:45;;;;;;;18.17;3.20;;;11.50;94.80;;;;;;5013030;28;20030;-68
2023/05/17 05:59:11;;;;;;;14.77;2.80;;;11.70;94.90;;;;;;5012531;28;20030;-68
2023/05/17 06:01:37;;;;;;;14.18;2.22;;;12.10;94.80;;;;;;5012506;28;20030;-69
2023/05/17 06:04:02;;;;;;;25.98;3.30;;;12.20;93.80;;;;;;5012307;28;20040;-68
2023/05/17 06:06:28;;;;;;;12.02;2.63;;;12.50;93.60;;;;;;5012400;28;20042;-68
2023/05/17 06:08:54;;;;;;;16.25;2.60;;;12.80;93.20;;;;;;5011345;28;20400;-68
2023/05/17 06:11:20;;;;;;;16.17;2.40;;;13.10;92.90;;;;;;4995404;28;20034;-69
2023/05/17 06:13:46;;;;;;;13.68;2.38;;;13.30;92.80;;;;;;5012657;28;20085;-68
2023/05/17 06:16:12;;;;;;;16.40;2.70;;;13.30;92.20;;;;;;5012224;28;20026;-67
2023/05/17 06:18:38;;;;;;;20.40;3.08;;;13.50;92.00;;;;;;4994929;28;20036;-67
2023/05/17 06:21:03;;;;;;;15.13;2.47;;;13.40;91.30;;;;;;5011686;28;20053;-67
2023/05/17 06:23:29;;;;;;;18.73;2.75;;;13.60;91.60;;;;;;5012121;28;20030;-66
2023/05/17 06:25:55;;;;;;;19.15;2.95;;;13.60;91.50;;;;;;5011875;28;20034;-68
2023/05/17 06:28:21;;;;;;;12.95;2.20;;;13.90;91.20;;;;;;5012018;28;20084;-66
2023/05/17 06:30:46;;;;;;;12.50;2.05;;;14.20;90.90;;;;;;5011857;28;20423;-66
2023/05/17 06:33:12;;;;;;;16.40;2.35;;;14.20;90.50;;;;;;5011964;28;20030;-65
2023/05/17 06:35:38;;;;;;;16.13;3.13;;;14.00;89.50;;;;;;5012528;28;20064;-67
2023/05/17 06:38:04;;;;;;;13.23;2.15;;;14.00;90.30;;;;;;5010810;28;20530;-66
2023/05/17 06:40:29;;;;;;;19.65;2.72;;;13.90;89.20;;;;;;5011869;28;20520;-66
2023/05/17 06:42:55;;;;;;;14.73;2.13;;;14.00;89.70;;;;;;5011602;28;20360;-68
2023/05/17 06:45:21;;;;;;;15.65;2.33;;;14.30;89.50;;;;;;5011752;28;20084;-67
2023/05/17 06:47:46;;;;;;;10.98;2.15;;;14.50;88.10;;;;;;4994714;28;20452;-65
2023/05/17 06:50:12;;;;;;;18.48;2.42;;;14.40;87.60;;;;;;5011855;28;20125;-66
2023/05/17 06:52:38;;;;;;;12.73;2.13;;;14.20;87.60;;;;;;5011650;28;20030;-66
2023/05/17 06:55:04;;;;;;;16.55;2.08;;;14.20;84.30;;;;;;5011088;28;20364;-66
2023/05/17 06:57:31;;;;;;;7.97;1.63;;;14.30;85.20;;;;;;5011612;28;20334;-65
2023/05/17 06:59:56;;;;;;;9.35;2.03;;;14.40;84.60;;;;;;5011383;28;20018;-66
2023/05/17 07:02:22;;;;;;;21.45;2.85;;;14.30;83.60;;;;;;5011875;28;20273;-68
2023/05/17 07:04:48;;;;;;;18.02;2.55;;;14.60;83.90;;;;;;5011399;28;20036;-66
2023/05/17 07:07:13;;;;;;;13.25;2.10;;;14.80;82.50;;;;;;5011235;28;20383;-65
2023/05/17 07:09:39;;;;;;;15.30;2.08;;;14.30;80.00;;;;;;5011154;28;20399;-65
2023/05/17 07:12:05;;;;;;;17.17;2.15;;;14.20;81.90;;;;;;5011299;28;20030;-67
2023/05/17 07:14:31;;;;;;;15.13;2.15;;;14.10;80.50;;;;;;5011960;28;20095;-67
2023/05/17 07:16:58;;;;;;;14.27;2.08;;;14.10;80.50;;;;;;5011145;28;20045;-66
2023/05/17 07:19:25;;;;;;;16.13;2.45;;;13.90;80.50;;;;;;5011154;28;20448;-66
2023/05/17 07:21:51;;;;;;;9.02;1.60;;;14.00;80.60;;;;;;5011052;28;20059;-67
2023/05/17 07:24:16;;;;;;;13.30;2.38;;;14.20;80.50;;;;;;5011008;28;20488;-66
2023/05/17 07:26:42;;;;;;;13.95;2.20;;;14.30;80.90;;;;;;5010377;28;20415;-66
2023/05/17 07:29:08;;;;;;;11.95;1.75;;;14.40;79.60;;;;;;5010996;28;20026;-65
2023/05/17 07:31:34;;;;;;;11.77;2.60;;;14.30;78.80;;;;;;5010910;28;20116;-67
2023/05/17 07:33:59;;;;;;;15.95;2.08;;;14.40;78.90;;;;;;5010827;28;20120;-66
2023/05/17 07:36:29;;;;;;;11.68;2.25;;;14.60;79.10;;;;;;5010766;28;20029;-65
2023/05/17 07:38:55;;;;;;;15.48;2.33;;;14.40;77.10;;;;;;5011067;28;20614;-66
2023/05/17 07:41:22;;;;;;;16.33;2.65;;;14.30;77.90;;;;;;5011625;28;20491;-67
2023/05/17 07:43:48;;;;;;;13.65;2.65;;;14.60;78.50;;;;;;5010833;28;20029;-66
2023/05/17 07:46:15;;;;;;;19.02;2.53;;;14.60;77.80;;;;;;5010828;28;20065;-67
2023/05/17 07:48:41;;;;;;;10.98;2.55;;;14.90;78.50;;;;;;5010550;28;20119;-66
2023/05/17 07:51:06;;;;;;;16.15;2.85;;;14.90;77.90;;;;;;5010546;28;20072;-66
2023/05/17 07:53:32;;;;;;;13.52;2.83;;;15.00;77.10;;;;;;5010956;28;20037;-67
2023/05/17 07:55:57;;;;;;;7.47;2.05;;;15.00;76.50;;;;;;5010878;28;20044;-65
2023/05/17 07:58:23;;;;;;;19.30;2.45;;;14.70;75.70;;;;;;5010766;28;20039;-67
2023/05/17 08:00:49;;;;;;;14.05;2.25;;;14.70;77.60;;;;;;5010688;28;20065;-67
2023/05/17 08:03:15;;;;;;;10.55;2.20;;;14.00;77.50;;;;;;5010749;28;20113;-66
2023/05/17 08:05:40;;;;;;;11.02;2.03;;;14.10;78.20;;;;;;5009875;28;20050;-66
2023/05/17 08:08:06;;;;;;;12.27;2.58;;;14.10;78.40;;;;;;5010491;28;20030;-66
2023/05/17 08:10:34;;;;;;;15.15;2.28;;;14.30;78.40;;;;;;5010644;28;20094;-66
2023/05/17 08:13:00;;;;;;;14.60;1.83;;;14.50;77.70;;;;;;5010371;28;20377;-67
2023/05/17 08:15:26;;;;;;;11.80;2.10;;;14.70;78.00;;;;;;5010285;28;20032;-67
2023/05/17 08:17:52;;;;;;;12.77;2.08;;;14.50;77.40;;;;;;5010401;28;20105;-66
2023/05/17 08:20:17;;;;;;;10.48;1.98;;;14.60;78.30;;;;;;5011425;28;20025;-67
2023/05/17 08:22:43;;;;;;;12.32;2.85;;;14.50;77.80;;;;;;5010637;28;20563;-67
2023/05/17 08:25:09;;;;;;;11.70;2.50;;;14.20;78.40;;;;;;5010424;28;20412;-67
2023/05/17 08:27:35;;;;;;;20.58;2.50;;;14.50;78.40;;;;;;5010555;28;20042;-67
2023/05/17 08:30:00;;;;;;;8.07;2.13;;;14.80;78.10;;;;;;5010460;28;20056;-67
2023/05/17 08:32:27;;;;;;;14.43;2.17;;;15.00;77.80;;;;;;5011039;28;20026;-67
2023/05/17 08:34:53;;;;;;;9.80;1.80;;;15.20;76.90;;;;;;5010797;28;20041;-67
2023/05/17 08:37:19;;;;;;;8.20;2.03;;;15.10;76.90;;;;;;5010378;28;20060;-67
2023/05/17 08:39:45;;;;;;;12.35;2.40;;;15.10;75.80;;;;;;5010425;28;20395;-66
2023/05/17 08:42:11;;;;;;;16.95;2.17;;;15.30;74.90;;;;;;5010819;28;20045;-67
2023/05/17 08:44:38;;;;;;;11.45;2.05;;;15.50;75.00;;;;;;5011471;28;20026;-67
2023/05/17 08:47:05;;;;;;;15.05;2.00;;;15.70;74.50;;;;;;5013346;28;20042;-67
2023/05/17 08:49:33;;;;;;;14.85;2.35;;;15.70;74.80;;;;;;5014540;28;20033;-68
2023/05/17 08:52:00;;;;;;;7.55;1.85;;;15.90;74.50;;;;;;5013767;28;20384;-66
2023/05/17 08:54:26;;;;;;;13.43;1.87;;;15.90;74.30;;;;;;5014336;28;20025;-67
2023/05/17 08:56:58;;;;;;;7.63;2.03;;;15.90;74.00;;;;;;4996423;28;20439;-67
2023/05/17 08:59:32;;;;;;;13.18;2.75;;;15.70;72.10;;;;;;5014820;28;20093;-66
2023/05/17 09:01:59;;;;;;;11.93;2.53;;;15.50;72.30;;;;;;5013750;28;20376;-68
2023/05/17 09:04:26;;;;;;;14.50;2.17;;;15.30;73.10;;;;;;5013691;28;20041;-66
2023/05/17 09:06:51;;;;;;;9.57;1.80;;;15.30;72.60;;;;;;4996411;28;20384;-67
2023/05/17 09:09:17;;;;;;;11.27;2.20;;;15.20;72.40;;;;;;5013349;28;20030;-66
2023/05/17 09:11:44;;;;;;;12.45;2.20;;;15.20;72.00;;;;;;5013919;28;20095;-67
2023/05/17 09:14:09;;;;;;;10.85;1.85;;;15.00;71.30;;;;;;5013623;28;20439;-66
2023/05/17 09:16:36;;;;;;;10.02;2.13;;;14.70;71.40;;;;;;5012645;28;20476;-66
2023/05/17 09:19:06;;;;;;;10.07;1.95;;;14.80;72.00;;;;;;5013221;28;20040;-66
2023/05/17 09:21:32;;;;;;;11.88;2.28;;;15.80;71.80;;;;;;4995732;28;20029;-66
2023/05/17 09:24:00;;;;;;;8.35;2.00;;;16.30;69.70;;;;;;5012879;28;20026;-66
2023/05/17 09:26:36;;;;;;;9.10;1.80;;;17.60;67.30;;;;;;5013614;28;20034;-66
2023/05/17 09:29:08;;;;;;;16.75;3.10;;;17.50;62.90;;;;;;5012235;28;20034;-67
2023/05/17 09:31:34;;;;;;;20.38;2.72;;;18.20;64.40;;;;;;5012135;28;20030;-68
2023/05/17 09:34:01;;;;;;;10.15;2.33;;;18.20;59.40;;;;;;5013233;28;20036;-68
2023/05/17 09:36:27;;;;;;;9.80;1.75;;;19.10;61.40;;;;;;5013153;28;20028;-68
2023/05/17 09:39:06;;;;;;;11.90;2.70;;;18.80;56.90;;;;;;5013205;28;20109;-69
2023/05/17 09:41:40;;;;;;;11.50;1.73;;;19.30;58.90;;;;;;4996310;28;20018;-68
2023/05/17 09:44:08;;;;;;;12.75;2.03;;;19.90;57.40;;;;;;5013047;28;20026;-66
2023/05/17 09:46:35;;;;;;;10.68;1.98;;;20.20;55.50;;;;;;5012902;28;20061;-67
2023/05/17 09:49:01;;;;;;;5.70;2.05;;;20.50;54.40;;;;;;5012077;28;20034;-67
2023/05/17 09:51:34;;;;;;;16.88;3.03;;;20.50;55.70;;;;;;5013155;28;20033;-67
2023/05/17 09:54:00;;;;;;;9.15;2.33;;;20.40;56.20;;;;;;5013264;28;20054;-67
2023/05/17 09:56:30;;;;;;;7.55;2.55;;;20.00;54.50;;;;;;5012333;28;20060;-67
2023/05/17 09:58:56;;;;;;;7.32;1.63;;;19.40;55.10;;;;;;5013442;28;20134;-68
2023/05/17 10:01:26;;;;;;;10.48;2.08;;;18.60;56.20;;;;;;5012783;28;20054;-68
2023/05/17 10:03:53;;;;;;;7.00;2.03;;;18.50;57.40;;;;;;5012966;28;20034;-69
2023/05/17 10:06:21;;;;;;;12.98;2.30;;;18.50;57.00;;;;;;5012725;28;20037;-68
2023/05/17 10:08:55;;;;;;;9.60;2.33;;;18.40;57.70;;;;;;5013068;28;20030;-68
2023/05/17 10:11:26;;;;;;;6.82;1.95;;;18.40;57.50;;;;;;5011829;28;20471;-69
2023/05/17 10:14:04;;;;;;;11.73;2.13;;;18.20;57.10;;;;;;5012822;28;20029;-68
2023/05/17 10:16:32;;;;;;;8.60;2.30;;;18.30;56.90;;;;;;5012466;28;20045;-70
2023/05/17 10:18:58;;;;;;;7.15;2.20;;;18.60;56.60;;;;;;5012618;28;20129;-69
2023/05/17 10:21:25;;;;;;;11.43;2.83;;;18.70;56.00;;;;;;5011933;28;20044;-67
2023/05/17 10:23:52;;;;;;;10.65;2.50;;;18.80;55.70;;;;;;5012630;28;20022;-67
2023/05/17 10:26:19;;;;;;;9.35;2.03;;;18.50;54.90;;;;;;5012990;28;20053;-68
2023/05/17 10:28:49;;;;;;;10.83;2.30;;;18.40;54.90;;;;;;4992087;28;20369;-69
2023/05/17 10:31:16;;;;;;;6.82;1.85;;;18.60;54.90;;;;;;5004139;28;20136;-68
2023/05/17 10:33:44;;;;;;;7.80;1.25;;;17.90;53.30;;;;;;5012317;28;20030;-68
2023/05/17 10:36:12;;;;;;;8.68;2.88;;;17.60;53.90;;;;;;5011838;28;20041;-68
2023/05/17 10:38:37;;;;;;;10.18;2.17;;;17.80;54.10;;;;;;5013449;28;20448;-67
2023/05/17 10:41:04;;;;;;;9.85;1.42;;;17.30;53.40;;;;;;5011799;28;20296;-67
2023/05/17 10:43:31;;;;;;;8.75;2.08;;;16.80;56.40;;;;;;5012109;28;20443;-68
2023/05/17 10:45:58;;;;;;;14.83;2.10;;;17.50;56.80;;;;;;5010928;28;20034;-67
2023/05/17 10:48:27;;;;;;;10.63;2.30;;;17.80;56.60;;;;;;5012048;28;20396;-67
2023/05/17 10:50:52;;;;;;;7.97;2.10;;;17.70;55.80;;;;;;5011761;28;20022;-66
2023/05/17 10:53:18;;;;;;;7.47;1.88;;;17.40;55.90;;;;;;5012160;28;20030;-67
2023/05/17 10:55:44;;;;;;;9.65;2.03;;;17.50;56.00;;;;;;5011694;28;20030;-67
2023/05/17 10:58:18;;;;;;;12.13;2.30;;;17.50;55.20;;;;;;5011505;28;20403;-69
2023/05/17 11:00:44;;;;;;;11.77;2.63;;;17.40;55.30;;;;;;5011658;28;20125;-69
2023/05/17 11:03:12;;;;;;;8.50;2.17;;;17.80;55.20;;;;;;4994009;28;20091;-68
2023/05/17 11:05:42;;;;;;;8.88;1.98;;;18.00;55.40;;;;;;4994348;28;20056;-68
2023/05/17 11:08:15;;;;;;;5.35;1.50;;;18.10;54.90;;;;;;5009784;28;20116;-67
2023/05/17 11:11:10;;;;;;;7.75;2.47;;;17.80;55.00;;;;;;5011670;28;20034;-69
2023/05/17 11:13:51;;;;;;;9.50;1.85;;;18.00;56.00;;;;;;5011338;28;20025;-68
2023/05/17 11:16:19;;;;;;;10.95;2.35;;;17.90;55.80;;;;;;5011492;28;20369;-68
2023/05/17 11:18:52;;;;;;;12.98;2.15;;;18.20;55.80;;;;;;5011484;28;20119;-69
2023/05/17 11:21:19;;;;;;;11.98;2.20;;;18.20;55.30;;;;;;5011474;28;20041;-68
2023/05/17 11:23:46;;;;;;;9.30;1.77;;;18.40;55.40;;;;;;5011679;28;20095;-69
2023/05/17 11:26:20;;;;;;;7.32;2.22;;;18.40;55.80;;;;;;5011126;28;20048;-69
2023/05/17 11:28:46;;;;;;;7.07;2.13;;;18.30;55.70;;;;;;5011105;28;20508;-69
2023/05/17 11:31:12;;;;;;;10.25;2.30;;;18.20;55.40;;;;;;5011313;28;20077;-69
2023/05/17 11:33:42;;;;;;;8.82;1.73;;;17.80;55.60;;;;;;5011250;28;20025;-68
2023/05/17 11:36:23;;;;;;;17.02;2.25;;;17.60;55.20;;;;;;5011123;28;20407;-69
2023/05/17 11:38:50;;;;;;;9.07;1.98;;;18.00;55.40;;;;;;5011476;28;20117;-69
2023/05/17 11:41:22;;;;;;;4.82;1.50;;;17.60;54.40;;;;;;4993763;28;20037;-67
2023/05/17 11:43:48;;;;;;;7.55;1.92;;;17.50;55.30;;;;;;5010865;28;20359;-68
2023/05/17 11:46:19;;;;;;;7.25;1.50;;;17.60;55.30;;;;;;4990057;28;20043;-67
2023/05/17 11:48:46;;;;;;;8.02;1.75;;;17.30;55.20;;;;;;4998679;28;20040;-68
2023/05/17 11:51:15;;;;;;;6.57;1.58;;;17.60;56.10;;;;;;5007712;28;20030;-68
2023/05/17 11:53:42;;;;;;;8.82;2.00;;;17.70;56.70;;;;;;4991330;28;20479;-68
2023/05/17 11:56:08;;;;;;;13.02;2.08;;;17.70;56.70;;;;;;4991190;28;20127;-68
2023/05/17 11:58:34;;;;;;;5.22;1.45;;;17.80;56.70;;;;;;4990916;28;20461;-68
2023/05/17 12:01:00;;;;;;;9.07;2.08;;;18.00;56.50;;;;;;4990918;28;20038;-68
2023/05/17 12:03:31;;;;;;;7.07;1.40;;;18.00;56.00;;;;;;4991323;28;20365;-68
2023/05/17 12:06:17;;;;;;;5.28;1.48;;;18.20;55.30;;;;;;4990992;28;20023;-68
2023/05/17 12:08:44;;;;;;;4.20;1.20;;;18.10;54.40;;;;;;4991287;28;20035;-68
2023/05/17 12:11:17;;;;;;;7.53;1.83;;;18.00;54.10;;;;;;4991163;28;20053;-69
2023/05/17 12:13:45;;;;;;;10.32;1.90;;;18.10;54.40;;;;;;4991361;28;20030;-69
2023/05/17 12:16:15;;;;;;;4.15;1.17;;;18.20;54.10;;;;;;4990022;28;20044;-68
2023/05/17 12:18:48;;;;;;;7.53;1.60;;;18.00;54.00;;;;;;4990016;28;20031;-68
2023/05/17 12:21:14;;;;;;;7.85;1.73;;;17.90;54.50;;;;;;4993901;28;20584;-67
2023/05/17 12:23:42;;;;;;;7.75;1.98;;;17.50;55.00;;;;;;4995399;28;20396;-67
2023/05/17 12:26:13;;;;;;;6.28;1.80;;;17.00;55.70;;;;;;4994682;28;20038;-67
2023/05/17 12:28:40;;;;;;;6.93;1.55;;;17.00;56.00;;;;;;4993750;28;20026;-68
2023/05/17 12:31:20;;;;;;;5.47;1.35;;;17.30;56.90;;;;;;4994696;28;20381;-67
2023/05/17 12:33:49;;;;;;;7.13;1.88;;;17.70;56.00;;;;;;4995068;28;20493;-68
2023/05/17 12:36:16;;;;;;;6.30;1.35;;;17.70;55.20;;;;;;4994814;28;20053;-68
2023/05/17 12:38:43;;;;;;;9.45;1.63;;;17.60;54.60;;;;;;4995280;28;20084;-69
2023/05/17 12:41:14;;;;;;;7.40;1.42;;;17.60;54.60;;;;;;4995065;28;20064;-69